sensor_id;sensor_type;location;lat;lon;timestamp;P1;durP1;ratioP1;P2;durP2;ratioP2
19006;SDS011;9636;47.382;8.480;2023-04-01T00:02:24;1.07;;;0.80;;
19006;SDS011;9636;47.382;8.480;2023-04-01T00:04:52;0.90;;;0.60;;
19006;SDS011;9636;47.382;8.480;2023-04-01T00:07:19;1.33;;;0.70;;
19006;SDS011;9636;47.382;8.480;2023-04-01T00:09:46;1.23;;;0.70;;
19006;SDS011;9636;47.382;8.480;2023-04-01T00:12:12;0.67;;;0.67;;
19006;SDS011;9636;47.382;8.480;2023-04-01T00:14:39;0.93;;;0.77;;
19006;SDS011;9636;47.382;8.480;2023-04-01T00:17:06;5.60;;;0.80;;
19006;SDS011;9636;47.382;8.480;2023-04-01T00:19:33;1.07;;;0.87;;
19006;SDS011;9636;47.382;8.480;2023-04-01T00:22:01;1.73;;;0.90;;
19006;SDS011;9636;47.382;8.480;2023-04-01T00:24:28;0.60;;;0.60;;
19006;SDS011;9636;47.382;8.480;2023-04-01T00:26:55;0.67;;;0.67;;
19006;SDS011;9636;47.382;8.480;2023-04-01T00:29:22;2.50;;;0.70;;
19006;SDS011;9636;47.382;8.480;2023-04-01T00:31:54;1.43;;;0.70;;
19006;SDS011;9636;47.382;8.480;2023-04-01T00:34:21;1.77;;;0.80;;
19006;SDS011;9636;47.382;8.480;2023-04-01T00:36:48;1.83;;;0.80;;
19006;SDS011;9636;47.382;8.480;2023-04-01T00:39:16;1.30;;;0.67;;
19006;SDS011;9636;47.382;8.480;2023-04-01T00:41:43;0.57;;;0.57;;
19006;SDS011;9636;47.382;8.480;2023-04-01T00:44:17;1.53;;;0.80;;
19006;SDS011;9636;47.382;8.480;2023-04-01T00:46:45;1.27;;;0.70;;
19006;SDS011;9636;47.382;8.480;2023-04-01T00:49:13;0.97;;;0.67;;
19006;SDS011;9636;47.382;8.480;2023-04-01T00:51:41;1.13;;;0.70;;
19006;SDS011;9636;47.382;8.480;2023-04-01T00:54:10;1.03;;;0.70;;
19006;SDS011;9636;47.382;8.480;2023-04-01T00:56:40;1.43;;;0.70;;
19006;SDS011;9636;47.382;8.480;2023-04-01T00:59:14;2.20;;;0.90;;
19006;SDS011;9636;47.382;8.480;2023-04-01T01:01:44;2.50;;;0.80;;
19006;SDS011;9636;47.382;8.480;2023-04-01T01:04:24;0.97;;;0.70;;
19006;SDS011;9636;47.382;8.480;2023-04-01T01:06:55;1.17;;;0.80;;
19006;SDS011;9636;47.382;8.480;2023-04-01T01:09:30;0.80;;;0.80;;
19006;SDS011;9636;47.382;8.480;2023-04-01T01:12:07;1.40;;;0.70;;
19006;SDS011;9636;47.382;8.480;2023-04-01T01:14:43;0.90;;;0.70;;
19006;SDS011;9636;47.382;8.480;2023-04-01T01:17:19;1.27;;;0.80;;
19006;SDS011;9636;47.382;8.480;2023-04-01T01:19:57;1.33;;;0.60;;
19006;SDS011;9636;47.382;8.480;2023-04-01T01:22:52;1.00;;;0.60;;
19006;SDS011;9636;47.382;8.480;2023-04-01T01:25:40;1.17;;;0.60;;
19006;SDS011;9636;47.382;8.480;2023-04-01T01:28:19;0.80;;;0.60;;
19006;SDS011;9636;47.382;8.480;2023-04-01T01:30:59;1.53;;;0.70;;
19006;SDS011;9636;47.382;8.480;2023-04-01T01:36:24;1.07;;;0.70;;
19006;SDS011;9636;47.382;8.480;2023-04-01T01:38:54;0.63;;;0.60;;
19006;SDS011;9636;47.382;8.480;2023-04-01T01:41:23;0.67;;;0.60;;
19006;SDS011;9636;47.382;8.480;2023-04-01T01:43:52;1.10;;;0.70;;
19006;SDS011;9636;47.382;8.480;2023-04-01T01:46:22;0.60;;;0.60;;
19006;SDS011;9636;47.382;8.480;2023-04-01T01:48:51;0.87;;;0.60;;
19006;SDS011;9636;47.382;8.480;2023-04-01T01:51:19;0.63;;;0.60;;
19006;SDS011;9636;47.382;8.480;2023-04-01T01:53:49;0.80;;;0.60;;
19006;SDS011;9636;47.382;8.480;2023-04-01T01:56:16;0.67;;;0.60;;
19006;SDS011;9636;47.382;8.480;2023-04-01T01:58:45;1.00;;;0.60;;
19006;SDS011;9636;47.382;8.480;2023-04-01T02:01:14;0.50;;;0.50;;
19006;SDS011;9636;47.382;8.480;2023-04-01T02:03:45;0.50;;;0.50;;
19006;SDS011;9636;47.382;8.480;2023-04-01T02:06:13;0.73;;;0.60;;
19006;SDS011;9636;47.382;8.480;2023-04-01T02:08:42;0.53;;;0.53;;
19006;SDS011;9636;47.382;8.480;2023-04-01T02:11:15;1.03;;;0.70;;
19006;SDS011;9636;47.382;8.480;2023-04-01T02:13:45;0.50;;;0.50;;
19006;SDS011;9636;47.382;8.480;2023-04-01T02:16:18;0.80;;;0.60;;
19006;SDS011;9636;47.382;8.480;2023-04-01T02:18:50;1.40;;;0.50;;
19006;SDS011;9636;47.382;8.480;2023-04-01T02:21:20;0.70;;;0.60;;
19006;SDS011;9636;47.382;8.480;2023-04-01T02:23:49;0.57;;;0.57;;
19006;SDS011;9636;47.382;8.480;2023-04-01T02:26:19;1.17;;;0.50;;
19006;SDS011;9636;47.382;8.480;2023-04-01T02:28:48;1.20;;;0.50;;
19006;SDS011;9636;47.382;8.480;2023-04-01T02:31:17;1.17;;;0.70;;
19006;SDS011;9636;47.382;8.480;2023-04-01T02:33:44;0.90;;;0.53;;
19006;SDS011;9636;47.382;8.480;2023-04-01T02:36:12;1.10;;;0.70;;
19006;SDS011;9636;47.382;8.480;2023-04-01T02:38:41;1.00;;;0.50;;
19006;SDS011;9636;47.382;8.480;2023-04-01T02:41:08;0.90;;;0.50;;
19006;SDS011;9636;47.382;8.480;2023-04-01T02:43:37;1.60;;;0.60;;
19006;SDS011;9636;47.382;8.480;2023-04-01T02:46:04;2.13;;;0.80;;
19006;SDS011;9636;47.382;8.480;2023-04-01T02:48:30;0.93;;;0.60;;
19006;SDS011;9636;47.382;8.480;2023-04-01T02:50:57;2.37;;;0.50;;
19006;SDS011;9636;47.382;8.480;2023-04-01T02:53:24;0.50;;;0.50;;
19006;SDS011;9636;47.382;8.480;2023-04-01T02:55:51;0.60;;;0.57;;
19006;SDS011;9636;47.382;8.480;2023-04-01T02:58:18;0.60;;;0.60;;
19006;SDS011;9636;47.382;8.480;2023-04-01T03:00:46;0.97;;;0.57;;
19006;SDS011;9636;47.382;8.480;2023-04-01T03:03:13;0.67;;;0.67;;
19006;SDS011;9636;47.382;8.480;2023-04-01T03:05:40;0.43;;;0.40;;
19006;SDS011;9636;47.382;8.480;2023-04-01T03:08:07;0.40;;;0.40;;
19006;SDS011;9636;47.382;8.480;2023-04-01T03:10:34;0.50;;;0.50;;
19006;SDS011;9636;47.382;8.480;2023-04-01T03:13:00;0.87;;;0.60;;
19006;SDS011;9636;47.382;8.480;2023-04-01T03:15:27;0.93;;;0.60;;
19006;SDS011;9636;47.382;8.480;2023-04-01T03:17:56;0.67;;;0.50;;
19006;SDS011;9636;47.382;8.480;2023-04-01T03:20:22;0.70;;;0.60;;
19006;SDS011;9636;47.382;8.480;2023-04-01T03:22:49;0.40;;;0.40;;
19006;SDS011;9636;47.382;8.480;2023-04-01T03:25:17;1.40;;;0.50;;
19006;SDS011;9636;47.382;8.480;2023-04-01T03:27:44;0.43;;;0.40;;
19006;SDS011;9636;47.382;8.480;2023-04-01T03:30:11;0.63;;;0.53;;
19006;SDS011;9636;47.382;8.480;2023-04-01T03:32:38;1.43;;;0.60;;
19006;SDS011;9636;47.382;8.480;2023-04-01T03:35:06;0.83;;;0.53;;
19006;SDS011;9636;47.382;8.480;2023-04-01T03:40:05;0.93;;;0.50;;
19006;SDS011;9636;47.382;8.480;2023-04-01T03:42:33;3.43;;;0.57;;
19006;SDS011;9636;47.382;8.480;2023-04-01T03:45:00;1.87;;;0.60;;
19006;SDS011;9636;47.382;8.480;2023-04-01T03:47:27;0.40;;;0.40;;
19006;SDS011;9636;47.382;8.480;2023-04-01T03:49:54;1.33;;;0.70;;
19006;SDS011;9636;47.382;8.480;2023-04-01T03:52:22;0.77;;;0.70;;
19006;SDS011;9636;47.382;8.480;2023-04-01T03:54:49;0.93;;;0.50;;
19006;SDS011;9636;47.382;8.480;2023-04-01T03:57:16;0.50;;;0.50;;
19006;SDS011;9636;47.382;8.480;2023-04-01T03:59:43;1.30;;;0.60;;
19006;SDS011;9636;47.382;8.480;2023-04-01T04:02:09;1.67;;;0.70;;
19006;SDS011;9636;47.382;8.480;2023-04-01T04:04:36;0.70;;;0.40;;
19006;SDS011;9636;47.382;8.480;2023-04-01T04:07:03;1.60;;;0.50;;
19006;SDS011;9636;47.382;8.480;2023-04-01T04:09:31;1.20;;;0.57;;
19006;SDS011;9636;47.382;8.480;2023-04-01T04:11:58;1.03;;;0.60;;
19006;SDS011;9636;47.382;8.480;2023-04-01T04:14:25;1.00;;;0.50;;
19006;SDS011;9636;47.382;8.480;2023-04-01T04:16:52;1.23;;;0.70;;
19006;SDS011;9636;47.382;8.480;2023-04-01T04:19:19;0.63;;;0.50;;
19006;SDS011;9636;47.382;8.480;2023-04-01T04:21:46;0.50;;;0.50;;
19006;SDS011;9636;47.382;8.480;2023-04-01T04:24:13;0.50;;;0.40;;
19006;SDS011;9636;47.382;8.480;2023-04-01T04:26:41;1.67;;;0.60;;
19006;SDS011;9636;47.382;8.480;2023-04-01T04:29:08;1.30;;;0.60;;
19006;SDS011;9636;47.382;8.480;2023-04-01T04:31:35;0.50;;;0.50;;
19006;SDS011;9636;47.382;8.480;2023-04-01T04:34:01;0.47;;;0.40;;
19006;SDS011;9636;47.382;8.480;2023-04-01T04:36:28;1.20;;;0.50;;
19006;SDS011;9636;47.382;8.480;2023-04-01T04:38:55;0.50;;;0.50;;
19006;SDS011;9636;47.382;8.480;2023-04-01T04:41:23;0.60;;;0.57;;
19006;SDS011;9636;47.382;8.480;2023-04-01T04:43:52;2.07;;;0.60;;
19006;SDS011;9636;47.382;8.480;2023-04-01T04:46:21;0.57;;;0.43;;
19006;SDS011;9636;47.382;8.480;2023-04-01T04:48:48;0.50;;;0.50;;
19006;SDS011;9636;47.382;8.480;2023-04-01T04:51:15;0.93;;;0.50;;
19006;SDS011;9636;47.382;8.480;2023-04-01T04:53:43;0.97;;;0.60;;
19006;SDS011;9636;47.382;8.480;2023-04-01T04:56:10;1.03;;;0.50;;
19006;SDS011;9636;47.382;8.480;2023-04-01T04:58:38;0.70;;;0.50;;
19006;SDS011;9636;47.382;8.480;2023-04-01T05:01:07;1.63;;;0.70;;
19006;SDS011;9636;47.382;8.480;2023-04-01T05:03:35;0.47;;;0.40;;
19006;SDS011;9636;47.382;8.480;2023-04-01T05:06:03;0.80;;;0.50;;
19006;SDS011;9636;47.382;8.480;2023-04-01T05:08:30;0.93;;;0.50;;
19006;SDS011;9636;47.382;8.480;2023-04-01T05:10:57;1.30;;;0.60;;
19006;SDS011;9636;47.382;8.480;2023-04-01T05:13:24;1.57;;;0.60;;
19006;SDS011;9636;47.382;8.480;2023-04-01T05:15:51;0.40;;;0.40;;
19006;SDS011;9636;47.382;8.480;2023-04-01T05:18:19;0.57;;;0.57;;
19006;SDS011;9636;47.382;8.480;2023-04-01T05:20:47;0.87;;;0.50;;
19006;SDS011;9636;47.382;8.480;2023-04-01T05:23:14;0.40;;;0.40;;
19006;SDS011;9636;47.382;8.480;2023-04-01T05:25:41;1.27;;;0.60;;
19006;SDS011;9636;47.382;8.480;2023-04-01T05:28:08;0.43;;;0.43;;
19006;SDS011;9636;47.382;8.480;2023-04-01T05:30:34;0.40;;;0.40;;
19006;SDS011;9636;47.382;8.480;2023-04-01T05:33:01;1.13;;;0.60;;
19006;SDS011;9636;47.382;8.480;2023-04-01T05:35:30;0.40;;;0.40;;
19006;SDS011;9636;47.382;8.480;2023-04-01T05:37:56;0.50;;;0.50;;
19006;SDS011;9636;47.382;8.480;2023-04-01T05:40:23;0.57;;;0.50;;
19006;SDS011;9636;47.382;8.480;2023-04-01T05:42:50;0.50;;;0.50;;
19006;SDS011;9636;47.382;8.480;2023-04-01T05:45:17;0.40;;;0.40;;
19006;SDS011;9636;47.382;8.480;2023-04-01T05:47:44;0.43;;;0.40;;
19006;SDS011;9636;47.382;8.480;2023-04-01T05:50:10;0.50;;;0.50;;
19006;SDS011;9636;47.382;8.480;2023-04-01T05:52:39;0.87;;;0.60;;
19006;SDS011;9636;47.382;8.480;2023-04-01T05:55:06;0.80;;;0.50;;
19006;SDS011;9636;47.382;8.480;2023-04-01T05:57:33;0.63;;;0.40;;
19006;SDS011;9636;47.382;8.480;2023-04-01T06:00:00;0.50;;;0.50;;
19006;SDS011;9636;47.382;8.480;2023-04-01T06:02:27;0.43;;;0.43;;
19006;SDS011;9636;47.382;8.480;2023-04-01T06:04:54;1.03;;;0.50;;
19006;SDS011;9636;47.382;8.480;2023-04-01T06:07:29;1.33;;;0.60;;
19006;SDS011;9636;47.382;8.480;2023-04-01T06:09:57;1.03;;;0.50;;
19006;SDS011;9636;47.382;8.480;2023-04-01T06:12:30;0.70;;;0.40;;
19006;SDS011;9636;47.382;8.480;2023-04-01T06:15:11;0.40;;;0.40;;
19006;SDS011;9636;47.382;8.480;2023-04-01T06:17:52;0.80;;;0.60;;
19006;SDS011;9636;47.382;8.480;2023-04-01T06:20:37;1.43;;;0.43;;
19006;SDS011;9636;47.382;8.480;2023-04-01T06:26:12;0.47;;;0.40;;
19006;SDS011;9636;47.382;8.480;2023-04-01T06:28:48;0.40;;;0.40;;
19006;SDS011;9636;47.382;8.480;2023-04-01T06:31:33;0.37;;;0.37;;
19006;SDS011;9636;47.382;8.480;2023-04-01T06:34:20;0.60;;;0.43;;
19006;SDS011;9636;47.382;8.480;2023-04-01T06:37:11;0.50;;;0.50;;
19006;SDS011;9636;47.382;8.480;2023-04-01T06:40:07;0.80;;;0.60;;
19006;SDS011;9636;47.382;8.480;2023-04-01T06:42:50;0.70;;;0.57;;
19006;SDS011;9636;47.382;8.480;2023-04-01T06:45:28;0.50;;;0.50;;
19006;SDS011;9636;47.382;8.480;2023-04-01T06:48:10;0.50;;;0.40;;
19006;SDS011;9636;47.382;8.480;2023-04-01T06:50:48;0.70;;;0.50;;
19006;SDS011;9636;47.382;8.480;2023-04-01T06:53:25;0.80;;;0.40;;
19006;SDS011;9636;47.382;8.480;2023-04-01T06:55:59;0.30;;;0.30;;
19006;SDS011;9636;47.382;8.480;2023-04-01T06:58:30;1.53;;;0.53;;
19006;SDS011;9636;47.382;8.480;2023-04-01T07:01:02;0.50;;;0.50;;
19006;SDS011;9636;47.382;8.480;2023-04-01T07:03:32;1.00;;;0.50;;
19006;SDS011;9636;47.382;8.480;2023-04-01T07:06:02;0.73;;;0.60;;
19006;SDS011;9636;47.382;8.480;2023-04-01T07:08:31;0.47;;;0.43;;
19006;SDS011;9636;47.382;8.480;2023-04-01T07:11:02;0.67;;;0.60;;
19006;SDS011;9636;47.382;8.480;2023-04-01T07:13:32;0.30;;;0.30;;
19006;SDS011;9636;47.382;8.480;2023-04-01T07:16:07;0.50;;;0.50;;
19006;SDS011;9636;47.382;8.480;2023-04-01T07:18:41;0.40;;;0.40;;
19006;SDS011;9636;47.382;8.480;2023-04-01T07:21:19;1.20;;;0.40;;
19006;SDS011;9636;47.382;8.480;2023-04-01T07:23:49;0.60;;;0.40;;
19006;SDS011;9636;47.382;8.480;2023-04-01T07:26:18;0.43;;;0.43;;
19006;SDS011;9636;47.382;8.480;2023-04-01T07:28:48;0.40;;;0.40;;
19006;SDS011;9636;47.382;8.480;2023-04-01T07:31:20;0.87;;;0.50;;
19006;SDS011;9636;47.382;8.480;2023-04-01T07:33:57;0.50;;;0.47;;
19006;SDS011;9636;47.382;8.480;2023-04-01T07:36:31;0.47;;;0.47;;
19006;SDS011;9636;47.382;8.480;2023-04-01T07:39:06;0.63;;;0.40;;
19006;SDS011;9636;47.382;8.480;2023-04-01T07:41:45;0.40;;;0.40;;
19006;SDS011;9636;47.382;8.480;2023-04-01T07:44:23;5.37;;;2.10;;
19006;SDS011;9636;47.382;8.480;2023-04-01T07:46:57;5.47;;;1.70;;
19006;SDS011;9636;47.382;8.480;2023-04-01T07:49:45;5.33;;;1.90;;
19006;SDS011;9636;47.382;8.480;2023-04-01T07:52:23;2.83;;;1.70;;
19006;SDS011;9636;47.382;8.480;2023-04-01T07:54:59;3.63;;;1.60;;
19006;SDS011;9636;47.382;8.480;2023-04-01T07:57:34;6.63;;;1.80;;
19006;SDS011;9636;47.382;8.480;2023-04-01T08:00:11;10.37;;;1.70;;
19006;SDS011;9636;47.382;8.480;2023-04-01T08:02:49;7.37;;;1.60;;
19006;SDS011;9636;47.382;8.480;2023-04-01T08:05:25;4.43;;;1.43;;
19006;SDS011;9636;47.382;8.480;2023-04-01T08:07:55;4.80;;;1.50;;
19006;SDS011;9636;47.382;8.480;2023-04-01T08:10:32;2.53;;;1.27;;
19006;SDS011;9636;47.382;8.480;2023-04-01T08:13:08;2.63;;;1.33;;
19006;SDS011;9636;47.382;8.480;2023-04-01T08:15:43;10.80;;;1.60;;
19006;SDS011;9636;47.382;8.480;2023-04-01T08:18:17;2.80;;;1.20;;
19006;SDS011;9636;47.382;8.480;2023-04-01T08:20:53;2.57;;;1.23;;
19006;SDS011;9636;47.382;8.480;2023-04-01T08:23:26;5.37;;;1.30;;
19006;SDS011;9636;47.382;8.480;2023-04-01T08:25:55;1.87;;;1.40;;
19006;SDS011;9636;47.382;8.480;2023-04-01T08:28:27;3.37;;;1.57;;
19006;SDS011;9636;47.382;8.480;2023-04-01T08:31:00;2.20;;;1.40;;
19006;SDS011;9636;47.382;8.480;2023-04-01T08:33:32;7.50;;;1.60;;
19006;SDS011;9636;47.382;8.480;2023-04-01T08:36:02;5.17;;;1.70;;
19006;SDS011;9636;47.382;8.480;2023-04-01T08:38:32;3.17;;;1.40;;
19006;SDS011;9636;47.382;8.480;2023-04-01T08:41:09;3.80;;;1.30;;
19006;SDS011;9636;47.382;8.480;2023-04-01T08:50:12;2.03;;;1.20;;
19006;SDS011;9636;47.382;8.480;2023-04-01T08:53:00;3.90;;;1.50;;
19006;SDS011;9636;47.382;8.480;2023-04-01T08:55:37;3.50;;;1.33;;
19006;SDS011;9636;47.382;8.480;2023-04-01T08:58:30;2.60;;;1.20;;
19006;SDS011;9636;47.382;8.480;2023-04-01T09:01:22;2.03;;;1.30;;
19006;SDS011;9636;47.382;8.480;2023-04-01T09:04:08;2.23;;;1.20;;
19006;SDS011;9636;47.382;8.480;2023-04-01T09:06:51;3.87;;;1.33;;
19006;SDS011;9636;47.382;8.480;2023-04-01T09:09:35;2.27;;;1.30;;
19006;SDS011;9636;47.382;8.480;2023-04-01T09:12:31;3.37;;;1.17;;
19006;SDS011;9636;47.382;8.480;2023-04-01T09:18:41;1.63;;;1.10;;
19006;SDS011;9636;47.382;8.480;2023-04-01T09:21:29;5.10;;;1.40;;
19006;SDS011;9636;47.382;8.480;2023-04-01T09:27:10;5.10;;;1.40;;
19006;SDS011;9636;47.382;8.480;2023-04-01T09:32:52;7.47;;;1.43;;
19006;SDS011;9636;47.382;8.480;2023-04-01T09:35:37;7.10;;;1.60;;
19006;SDS011;9636;47.382;8.480;2023-04-01T09:38:20;6.87;;;1.60;;
19006;SDS011;9636;47.382;8.480;2023-04-01T09:40:54;4.43;;;1.43;;
19006;SDS011;9636;47.382;8.480;2023-04-01T09:43:26;4.32;;;1.50;;
19006;SDS011;9636;47.382;8.480;2023-04-01T09:52:09;6.00;;;1.20;;
19006;SDS011;9636;47.382;8.480;2023-04-01T09:54:58;6.87;;;1.37;;
19006;SDS011;9636;47.382;8.480;2023-04-01T10:00:39;5.23;;;1.37;;
19006;SDS011;9636;47.382;8.480;2023-04-01T10:03:37;3.90;;;1.07;;
19006;SDS011;9636;47.382;8.480;2023-04-01T10:09:52;4.23;;;1.30;;
19006;SDS011;9636;47.382;8.480;2023-04-01T10:13:10;5.18;;;1.10;;
19006;SDS011;9636;47.382;8.480;2023-04-01T10:22:50;2.87;;;1.20;;
19006;SDS011;9636;47.382;8.480;2023-04-01T10:25:49;7.20;;;1.25;;
19006;SDS011;9636;47.382;8.480;2023-04-01T10:37:50;1.65;;;1.10;;
19006;SDS011;9636;47.382;8.480;2023-04-01T10:40:52;6.45;;;1.38;;
19006;SDS011;9636;47.382;8.480;2023-04-01T10:43:45;8.75;;;1.52;;
19006;SDS011;9636;47.382;8.480;2023-04-01T10:49:37;24.57;;;12.03;;
19006;SDS011;9636;47.382;8.480;2023-04-01T10:52:17;18.37;;;9.10;;
19006;SDS011;9636;47.382;8.480;2023-04-01T10:55:09;14.35;;;8.32;;
19006;SDS011;9636;47.382;8.480;2023-04-01T10:57:58;19.67;;;8.77;;
19006;SDS011;9636;47.382;8.480;2023-04-01T11:07:16;13.07;;;7.47;;
19006;SDS011;9636;47.382;8.480;2023-04-01T11:16:43;12.18;;;6.65;;
19006;SDS011;9636;47.382;8.480;2023-04-01T11:22:31;12.25;;;6.40;;
19006;SDS011;9636;47.382;8.480;2023-04-01T11:25:29;10.70;;;6.18;;
19006;SDS011;9636;47.382;8.480;2023-04-01T11:28:17;12.85;;;6.00;;
19006;SDS011;9636;47.382;8.480;2023-04-01T11:31:00;9.75;;;5.55;;
19006;SDS011;9636;47.382;8.480;2023-04-01T11:33:38;13.65;;;5.82;;
19006;SDS011;9636;47.382;8.480;2023-04-01T11:36:16;8.90;;;5.25;;
19006;SDS011;9636;47.382;8.480;2023-04-01T11:38:56;10.80;;;5.03;;
19006;SDS011;9636;47.382;8.480;2023-04-01T11:41:39;8.25;;;5.03;;
19006;SDS011;9636;47.382;8.480;2023-04-01T11:44:14;8.52;;;5.00;;
19006;SDS011;9636;47.382;8.480;2023-04-01T11:49:40;8.85;;;4.57;;
19006;SDS011;9636;47.382;8.480;2023-04-01T11:55:23;8.85;;;4.60;;
19006;SDS011;9636;47.382;8.480;2023-04-01T12:00:53;10.88;;;4.40;;
19006;SDS011;9636;47.382;8.480;2023-04-01T12:03:35;8.38;;;4.68;;
19006;SDS011;9636;47.382;8.480;2023-04-01T12:06:14;7.38;;;4.25;;
19006;SDS011;9636;47.382;8.480;2023-04-01T12:08:49;7.47;;;4.22;;
19006;SDS011;9636;47.382;8.480;2023-04-01T12:11:23;9.82;;;4.15;;
19006;SDS011;9636;47.382;8.480;2023-04-01T12:13:59;6.00;;;4.00;;
19006;SDS011;9636;47.382;8.480;2023-04-01T12:16:41;8.18;;;4.25;;
19006;SDS011;9636;47.382;8.480;2023-04-01T12:19:19;6.88;;;3.88;;
19006;SDS011;9636;47.382;8.480;2023-04-01T12:22:02;9.80;;;4.35;;
19006;SDS011;9636;47.382;8.480;2023-04-01T12:24:45;7.35;;;3.95;;
19006;SDS011;9636;47.382;8.480;2023-04-01T12:27:34;9.63;;;3.95;;
19006;SDS011;9636;47.382;8.480;2023-04-01T12:36:22;7.47;;;3.72;;
19006;SDS011;9636;47.382;8.480;2023-04-01T12:39:05;7.93;;;3.50;;
19006;SDS011;9636;47.382;8.480;2023-04-01T12:41:46;6.93;;;3.58;;
19006;SDS011;9636;47.382;8.480;2023-04-01T12:44:35;5.82;;;3.00;;
19006;SDS011;9636;47.382;8.480;2023-04-01T12:47:17;7.70;;;3.72;;
19006;SDS011;9636;47.382;8.480;2023-04-01T12:50:15;5.85;;;3.25;;
19006;SDS011;9636;47.382;8.480;2023-04-01T12:52:51;7.68;;;3.65;;
19006;SDS011;9636;47.382;8.480;2023-04-01T12:55:35;4.15;;;3.08;;
19006;SDS011;9636;47.382;8.480;2023-04-01T13:01:30;4.95;;;3.05;;
19006;SDS011;9636;47.382;8.480;2023-04-01T13:10:02;6.25;;;3.10;;
19006;SDS011;9636;47.382;8.480;2023-04-01T13:12:40;4.80;;;2.70;;
19006;SDS011;9636;47.382;8.480;2023-04-01T13:15:31;4.95;;;3.10;;
19006;SDS011;9636;47.382;8.480;2023-04-01T13:18:12;4.97;;;3.08;;
19006;SDS011;9636;47.382;8.480;2023-04-01T13:20:47;6.38;;;2.88;;
19006;SDS011;9636;47.382;8.480;2023-04-01T13:23:31;4.47;;;2.88;;
19006;SDS011;9636;47.382;8.480;2023-04-01T13:26:07;4.65;;;2.78;;
19006;SDS011;9636;47.382;8.480;2023-04-01T13:28:40;4.13;;;2.60;;
19006;SDS011;9636;47.382;8.480;2023-04-01T13:31:18;5.43;;;2.72;;
19006;SDS011;9636;47.382;8.480;2023-04-01T13:33:57;4.10;;;2.40;;
19006;SDS011;9636;47.382;8.480;2023-04-01T13:36:34;7.28;;;2.55;;
19006;SDS011;9636;47.382;8.480;2023-04-01T13:42:11;3.75;;;2.78;;
19006;SDS011;9636;47.382;8.480;2023-04-01T13:44:44;4.78;;;2.55;;
19006;SDS011;9636;47.382;8.480;2023-04-01T13:47:22;3.08;;;2.45;;
19006;SDS011;9636;47.382;8.480;2023-04-01T13:50:12;3.88;;;2.35;;
19006;SDS011;9636;47.382;8.480;2023-04-01T13:53:00;3.50;;;2.42;;
19006;SDS011;9636;47.382;8.480;2023-04-01T13:55:49;4.00;;;2.25;;
19006;SDS011;9636;47.382;8.480;2023-04-01T13:58:37;3.08;;;2.20;;
19006;SDS011;9636;47.382;8.480;2023-04-01T14:01:15;3.22;;;2.42;;
19006;SDS011;9636;47.382;8.480;2023-04-01T14:03:52;5.28;;;2.50;;
19006;SDS011;9636;47.382;8.480;2023-04-01T14:06:36;4.50;;;2.50;;
19006;SDS011;9636;47.382;8.480;2023-04-01T14:09:34;2.28;;;2.03;;
19006;SDS011;9636;47.382;8.480;2023-04-01T14:12:12;2.97;;;2.30;;
19006;SDS011;9636;47.382;8.480;2023-04-01T14:14:50;3.40;;;2.47;;
19006;SDS011;9636;47.382;8.480;2023-04-01T14:17:35;2.85;;;2.40;;
19006;SDS011;9636;47.382;8.480;2023-04-01T14:20:20;3.45;;;2.20;;
19006;SDS011;9636;47.382;8.480;2023-04-01T14:22:57;2.20;;;2.00;;
19006;SDS011;9636;47.382;8.480;2023-04-01T14:29:02;4.00;;;2.15;;
19006;SDS011;9636;47.382;8.480;2023-04-01T14:31:48;2.92;;;2.20;;
19006;SDS011;9636;47.382;8.480;2023-04-01T14:34:28;3.30;;;2.22;;
19006;SDS011;9636;47.382;8.480;2023-04-01T14:37:09;2.45;;;2.15;;
19006;SDS011;9636;47.382;8.480;2023-04-01T14:39:49;2.20;;;2.00;;
19006;SDS011;9636;47.382;8.480;2023-04-01T14:42:36;2.67;;;2.40;;
19006;SDS011;9636;47.382;8.480;2023-04-01T14:45:31;2.38;;;2.17;;
19006;SDS011;9636;47.382;8.480;2023-04-01T14:48:15;2.92;;;2.28;;
19006;SDS011;9636;47.382;8.480;2023-04-01T14:50:49;2.70;;;2.08;;
19006;SDS011;9636;47.382;8.480;2023-04-01T14:53:23;2.67;;;2.03;;
19006;SDS011;9636;47.382;8.480;2023-04-01T14:55:55;2.10;;;1.90;;
19006;SDS011;9636;47.382;8.480;2023-04-01T14:58:24;3.13;;;2.10;;
19006;SDS011;9636;47.382;8.480;2023-04-01T15:01:06;2.30;;;1.88;;
19006;SDS011;9636;47.382;8.480;2023-04-01T15:03:48;2.60;;;2.15;;
19006;SDS011;9636;47.382;8.480;2023-04-01T15:09:24;2.22;;;1.80;;
19006;SDS011;9636;47.382;8.480;2023-04-01T15:12:06;3.33;;;1.92;;
19006;SDS011;9636;47.382;8.480;2023-04-01T15:14:53;3.25;;;2.25;;
19006;SDS011;9636;47.382;8.480;2023-04-01T15:17:41;3.63;;;1.80;;
19006;SDS011;9636;47.382;8.480;2023-04-01T15:20:23;1.88;;;1.52;;
19006;SDS011;9636;47.382;8.480;2023-04-01T15:23:02;2.13;;;1.80;;
19006;SDS011;9636;47.382;8.480;2023-04-01T15:25:44;2.15;;;1.80;;
19006;SDS011;9636;47.382;8.480;2023-04-01T15:28:21;3.70;;;2.03;;
19006;SDS011;9636;47.382;8.480;2023-04-01T15:30:56;3.08;;;1.90;;
19006;SDS011;9636;47.382;8.480;2023-04-01T15:33:39;2.47;;;1.70;;
19006;SDS011;9636;47.382;8.480;2023-04-01T15:36:25;1.92;;;1.65;;
19006;SDS011;9636;47.382;8.480;2023-04-01T15:39:01;3.55;;;2.05;;
19006;SDS011;9636;47.382;8.480;2023-04-01T15:41:39;1.83;;;1.60;;
19006;SDS011;9636;47.382;8.480;2023-04-01T15:44:34;1.88;;;1.70;;
19006;SDS011;9636;47.382;8.480;2023-04-01T15:47:23;1.70;;;1.60;;
19006;SDS011;9636;47.382;8.480;2023-04-01T15:50:01;2.63;;;1.67;;
19006;SDS011;9636;47.382;8.480;2023-04-01T15:52:49;2.67;;;1.60;;
19006;SDS011;9636;47.382;8.480;2023-04-01T15:55:30;2.38;;;1.70;;
19006;SDS011;9636;47.382;8.480;2023-04-01T15:58:06;3.20;;;1.70;;
19006;SDS011;9636;47.382;8.480;2023-04-01T16:00:58;2.10;;;1.60;;
19006;SDS011;9636;47.382;8.480;2023-04-01T16:03:36;2.63;;;1.70;;
19006;SDS011;9636;47.382;8.480;2023-04-01T16:09:12;1.77;;;1.55;;
19006;SDS011;9636;47.382;8.480;2023-04-01T16:12:03;1.80;;;1.65;;
19006;SDS011;9636;47.382;8.480;2023-04-01T16:14:35;1.83;;;1.42;;
19006;SDS011;9636;47.382;8.480;2023-04-01T16:17:25;2.08;;;1.60;;
19006;SDS011;9636;47.382;8.480;2023-04-01T16:20:02;1.55;;;1.45;;
19006;SDS011;9636;47.382;8.480;2023-04-01T16:22:45;1.70;;;1.60;;
19006;SDS011;9636;47.382;8.480;2023-04-01T16:25:20;1.65;;;1.35;;
19006;SDS011;9636;47.382;8.480;2023-04-01T16:27:56;3.92;;;1.80;;
19006;SDS011;9636;47.382;8.480;2023-04-01T16:30:34;2.47;;;1.40;;
19006;SDS011;9636;47.382;8.480;2023-04-01T16:33:07;5.07;;;1.75;;
19006;SDS011;9636;47.382;8.480;2023-04-01T16:35:41;2.05;;;1.60;;
19006;SDS011;9636;47.382;8.480;2023-04-01T16:38:15;3.70;;;1.58;;
19006;SDS011;9636;47.382;8.480;2023-04-01T16:40:50;4.95;;;2.00;;
19006;SDS011;9636;47.382;8.480;2023-04-01T16:43:28;3.30;;;1.83;;
19006;SDS011;9636;47.382;8.480;2023-04-01T16:46:13;3.63;;;1.83;;
19006;SDS011;9636;47.382;8.480;2023-04-01T16:51:57;4.05;;;1.77;;
19006;SDS011;9636;47.382;8.480;2023-04-01T16:54:39;2.15;;;1.70;;
19006;SDS011;9636;47.382;8.480;2023-04-01T16:57:16;3.10;;;2.03;;
19006;SDS011;9636;47.382;8.480;2023-04-01T16:59:46;2.72;;;1.67;;
19006;SDS011;9636;47.382;8.480;2023-04-01T17:02:20;4.30;;;1.90;;
19006;SDS011;9636;47.382;8.480;2023-04-01T17:04:57;1.92;;;1.73;;
19006;SDS011;9636;47.382;8.480;2023-04-01T17:07:32;1.55;;;1.45;;
19006;SDS011;9636;47.382;8.480;2023-04-01T17:10:21;3.33;;;1.60;;
19006;SDS011;9636;47.382;8.480;2023-04-01T17:13:05;1.90;;;1.75;;
19006;SDS011;9636;47.382;8.480;2023-04-01T17:15:44;2.38;;;1.70;;
19006;SDS011;9636;47.382;8.480;2023-04-01T17:18:22;5.68;;;1.70;;
19006;SDS011;9636;47.382;8.480;2023-04-01T17:21:03;1.92;;;1.52;;
19006;SDS011;9636;47.382;8.480;2023-04-01T17:23:33;3.03;;;1.60;;
19006;SDS011;9636;47.382;8.480;2023-04-01T17:26:06;2.90;;;1.40;;
19006;SDS011;9636;47.382;8.480;2023-04-01T17:28:46;4.82;;;1.63;;
19006;SDS011;9636;47.382;8.480;2023-04-01T17:31:20;2.80;;;1.58;;
19006;SDS011;9636;47.382;8.480;2023-04-01T17:34:02;2.33;;;1.55;;
19006;SDS011;9636;47.382;8.480;2023-04-01T17:36:58;3.67;;;1.67;;
19006;SDS011;9636;47.382;8.480;2023-04-01T17:39:40;4.32;;;1.88;;
19006;SDS011;9636;47.382;8.480;2023-04-01T17:42:16;3.10;;;1.52;;
19006;SDS011;9636;47.382;8.480;2023-04-01T17:44:50;3.30;;;1.47;;